Atwood, Colorado
Current Conditions -  °F | °C
As of 2:30 PM on Monday 24 Nov 2014 (Local Time) from KSTK Reporting Station
Light Snow Light Snow  
Wind Chill: 28°   Ceiling: 5000
Heat Index: 37°   Visibility: 5mi
Dew Point: 30°   Wind: 17mph
Humidity: 75%   Direction: 340°NNW
Pressure: 30.01"   Gusts: 39mph
Location:  40.55°N, 103.27°W
Report Text: KSTK 242130Z AUTO 34015G34KT 5SM -SN SCT020 BKN050 OVC095 03/M01 A3001 RMK AO2
Loading
Personal Weather Stations






























Interactive Weather Map New forecast layout! Learn more

10-Day Weather Forecast

Advertisements
Track Severe Weather on mobile